METAR AND TAF INFORMATION
METAR FOR GCHI
ADDS - METARS form results

(2122 UTC 03 August 2021)
Data provider http://aviationweather.gov/metar/data/
 
METAR text: GCHI 032100Z AUTO 03009KT 360V060 CAVOK 22/19 Q1020
Conditions at: GCHI (HIERRO AIRPORT , ES) observed 2100 UTC 03 August 2021
Temperature: 22.0°C (72°F)
Dewpoint: 19.0°C (66°F) [RH = 83%]
Pressure (altimeter): 30.12 inches Hg (1020.0 mb)
Winds: from the NNE (30 degrees) at 10 MPH (9 knots; 4.6 m/s)
Visibility: 6 or more miles (10+ km)
Ceiling: ceiling and visibility are OK
Clouds: unknown
Weather: no significant weather observed at this time

METAR text: GCHI 032030Z AUTO 01008KT 340V050 9999 FEW017 22/18 Q1019
Conditions at: GCHI (HIERRO AIRPORT , ES) observed 2030 UTC 03 August 2021
Temperature: 22.0°C (72°F)
Dewpoint: 18.0°C (64°F) [RH = 78%]
Pressure (altimeter): 30.09 inches Hg (1019.0 mb)
Winds: from the N (10 degrees) at 9 MPH (8 knots; 4.1 m/s)
Visibility: 6 or more miles (10+ km)
Ceiling: at least 12,000 feet AGL
Clouds: few clouds at 1700 feet AGL
Weather: no significant weather observed at this time

Forecast for: GCHI (HIERRO AIRPORT , ES)
Text: TAF GCHI 032000Z 0321/0421 36013KT 9999 SCT020 TX25/0414Z TN21/0406Z
Forecast period: 2100 UTC 03 August 2021 to 2100 UTC 04 August 2021
Forecast type: FROM: standard forecast or significant change
Winds: from the N (360 degrees) at 15 MPH (13 knots; 6.7 m/s)
Visibility: 6 or more miles (10+ km)
Ceiling: at least 12,000 feet AGL
Clouds: scattered clouds at 2000 feet AGL
Weather: no significant weather forecast for this period

 AIRPORT MAP

 RUNWAY INFORMATION
Runway 16 Runway length 4101 ft Runway width 98 ft
Runway elevation 71 ft Runway displaced threshold 0 ft Runway heading 153
Runway 34 Runway length 4101 ft Runway width 98 ft
Runway elevation 103 ft Runway displaced threshold 0 ft Runway heading 333

 AIRPORT FREQUENCIES
Type A/D Name CANARIAS A Frequency 126.1 MHZ
Type GND Name GND Frequency 121.6 MHZ
Type TWR Name TWR Frequency 118.1 MHZ

 AIRPORT NEAR NAVIGATION AIDS
Type NDB Name Hierro Frequency 376 KHZ
Type DME Name Hierro Frequency 113200 KHZ





Powered by Virtual Airlines Manager

Maps by Rafael Santos